createdAt,value
2023-03-26T08:27:15.544Z,7.60
2023-03-26T12:18:06.261Z,19.60
2023-03-26T12:20:40.760Z,17.50
2023-03-26T12:24:28.463Z,19.20
2023-03-26T12:30:42.510Z,17.60
2023-03-26T12:33:22.485Z,20.30
2023-03-26T12:35:58.026Z,20.00
2023-03-26T12:38:34.779Z,18.90
2023-03-26T12:42:25.968Z,20.60
2023-03-26T12:44:52.875Z,20.40
2023-03-26T12:47:58.515Z,18.60
2023-03-26T12:50:15.787Z,21.60
2023-03-26T12:53:09.292Z,21.20
2023-03-26T12:55:47.911Z,21.90
2023-03-26T12:58:55.334Z,22.00
2023-03-26T13:01:42.122Z,20.90
2023-03-26T13:04:39.640Z,21.30
2023-03-26T13:07:21.821Z,21.60
2023-03-26T13:10:28.252Z,22.00
2023-03-26T13:13:36.411Z,23.50
2023-03-26T13:16:14.925Z,22.90
2023-03-26T13:18:54.764Z,22.90
2023-03-26T13:21:43.795Z,23.80
2023-03-26T13:24:30.271Z,23.10
2023-03-26T13:27:23.745Z,22.50
2023-03-26T13:30:03.833Z,21.90
2023-03-26T13:32:52.219Z,22.40
2023-03-26T13:35:32.923Z,23.30
2023-03-26T13:38:12.817Z,23.50
2023-03-26T13:40:57.985Z,23.90
2023-03-26T13:43:45.195Z,24.10
2023-03-26T13:46:30.144Z,24.40
2023-03-26T13:49:04.251Z,24.50
2023-03-26T13:51:42.254Z,25.70
2023-03-26T13:54:22.871Z,23.40
2023-03-26T13:57:01.361Z,24.80
2023-03-26T13:59:39.750Z,24.90
2023-03-26T14:02:19.638Z,24.40
2023-03-26T14:04:53.423Z,26.20
2023-03-26T14:07:28.512Z,26.10
2023-03-26T14:10:04.593Z,26.00
2023-03-26T14:12:53.988Z,24.50
2023-03-26T14:15:29.382Z,26.00
2023-03-26T14:18:11.859Z,26.20
2023-03-26T14:21:26.781Z,27.10
2023-03-26T14:24:48.097Z,27.60
2023-03-26T14:27:39.238Z,27.30
2023-03-26T14:30:48.254Z,26.70
2023-03-26T14:34:04.956Z,26.50
2023-03-26T14:37:14.866Z,26.50
2023-03-26T14:40:14.972Z,26.90
2023-03-26T14:42:53.455Z,26.20
2023-03-26T14:45:53.867Z,26.70
2023-03-26T14:49:11.076Z,25.30
2023-03-26T14:52:03.720Z,24.30
2023-03-26T14:54:38.643Z,24.60
2023-03-26T14:58:03.892Z,23.10
2023-03-26T15:01:32.968Z,22.80
2023-03-26T15:04:53.296Z,20.40
2023-03-26T15:08:05.367Z,18.50
2023-03-26T15:11:18.464Z,17.80
2023-03-26T15:14:03.874Z,13.70
2023-03-26T15:17:34.608Z,16.70
2023-03-26T15:21:05.429Z,16.60
2023-03-26T15:24:27.126Z,17.30
2023-03-26T15:27:57.453Z,16.80
2023-03-26T15:31:11.752Z,15.40
2023-03-26T15:34:20.182Z,16.20
2023-03-26T15:37:49.869Z,15.70
2023-03-26T15:40:44.338Z,15.80
2023-03-26T15:43:16.784Z,15.90
2023-03-26T15:45:51.394Z,15.90
2023-03-26T15:49:08.388Z,15.20
2023-03-26T15:51:54.909Z,14.60
2023-03-26T15:54:33.276Z,13.20
2023-03-26T15:57:27.292Z,13.60
2023-03-26T16:00:23.660Z,13.60
2023-03-26T16:03:15.933Z,12.20
2023-03-26T16:06:20.731Z,12.60
2023-03-26T16:09:05.041Z,12.30
2023-03-26T16:11:54.133Z,11.90
2023-03-26T16:14:27.783Z,11.80
2023-03-26T16:17:01.246Z,12.00
2023-03-26T16:20:22.103Z,12.20
2023-03-26T16:23:03.247Z,12.30
2023-03-26T16:25:34.787Z,12.40
2023-03-26T16:28:31.085Z,12.40
2023-03-26T16:31:38.337Z,12.40
2023-03-26T16:34:41.602Z,12.10
2023-03-26T16:37:39.996Z,12.20
2023-03-26T16:40:52.049Z,12.00
2023-03-26T16:43:50.368Z,12.20
2023-03-26T16:46:32.561Z,10.80
2023-03-26T16:49:17.030Z,11.70
2023-03-26T16:52:16.617Z,11.60
2023-03-26T16:54:58.595Z,11.70
2023-03-26T16:57:38.641Z,11.70
2023-03-26T17:00:45.423Z,11.50
2023-03-26T17:03:45.524Z,11.00
2023-03-26T17:06:47.201Z,10.90
2023-03-26T17:09:29.871Z,9.90
2023-03-26T17:12:16.992Z,10.90
2023-03-26T17:15:04.570Z,10.90
2023-03-26T17:17:49.650Z,7.50
2023-03-26T17:20:33.548Z,10.00
2023-03-26T17:23:26.533Z,8.60
2023-03-26T17:26:10.745Z,9.50
2023-03-26T17:29:03.434Z,8.60
2023-03-26T17:31:46.681Z,9.50
2023-03-26T17:34:57.042Z,9.20
2023-03-26T17:37:51.249Z,9.10
2023-03-26T17:40:54.958Z,7.20
2023-03-26T17:43:52.992Z,5.60
2023-03-26T17:49:46.787Z,8.60
2023-03-26T17:55:51.219Z,8.60
2023-03-26T18:16:30.100Z,8.50
2023-03-26T18:19:03.913Z,8.60
2023-03-26T18:21:37.820Z,5.50
2023-03-26T18:24:09.665Z,8.30
2023-03-26T18:26:42.048Z,5.60
2023-03-26T18:29:21.083Z,5.40
2023-03-26T18:31:57.859Z,6.60
2023-03-26T18:34:29.411Z,7.90
2023-03-26T18:37:19.652Z,5.80
2023-03-26T18:40:02.441Z,7.00
2023-03-26T18:42:34.952Z,8.30
2023-03-26T18:45:15.028Z,8.30
2023-03-26T18:47:47.841Z,8.10
2023-03-26T18:50:23.283Z,7.80
2023-03-26T18:52:52.339Z,7.80
2023-03-26T18:55:21.375Z,4.70
2023-03-26T18:57:52.765Z,3.70
2023-03-26T19:00:25.593Z,7.70
2023-03-26T19:03:06.812Z,7.80
2023-03-26T19:05:37.640Z,3.60
2023-03-26T19:08:08.973Z,6.20
2023-03-26T19:10:39.195Z,5.50
2023-03-26T19:13:16.025Z,7.80
2023-03-26T19:15:47.789Z,4.70
2023-03-26T19:18:22.143Z,7.70
2023-03-26T19:20:55.761Z,6.70
2023-03-26T19:23:31.928Z,7.30
2023-03-26T19:26:04.782Z,7.50
2023-03-26T19:28:37.722Z,7.00
2023-03-26T19:31:12.522Z,7.60
2023-03-26T19:33:45.392Z,7.60
2023-03-26T19:36:22.816Z,5.50
2023-03-26T19:38:54.227Z,7.80
2023-03-26T19:41:26.820Z,7.90
2023-03-26T19:44:01.043Z,4.00
2023-03-26T19:46:53.831Z,6.60
2023-03-26T19:49:33.914Z,3.90
2023-03-26T19:52:15.024Z,4.10
2023-03-26T19:54:59.260Z,5.90
2023-03-26T19:57:30.624Z,6.50
2023-03-26T19:59:59.990Z,8.50
2023-03-26T20:02:29.458Z,4.80
2023-03-26T20:04:59.824Z,8.60
2023-03-26T20:07:35.716Z,8.70
2023-03-26T20:10:06.817Z,8.60
2023-03-26T20:12:35.557Z,7.60
2023-03-26T20:15:19.486Z,8.50
2023-03-26T20:17:50.324Z,8.50
2023-03-26T20:20:21.104Z,8.30
2023-03-26T20:22:49.759Z,8.30
2023-03-26T20:25:22.969Z,8.30
2023-03-26T20:27:53.138Z,8.20
2023-03-26T20:33:12.604Z,8.20
2023-03-26T20:35:44.027Z,4.80
2023-03-26T20:38:12.870Z,5.50
2023-03-26T20:40:41.962Z,8.60
2023-03-26T20:43:14.365Z,8.60
2023-03-26T20:45:43.815Z,8.70
2023-03-26T20:48:12.965Z,6.30
2023-03-26T20:50:50.659Z,9.00
2023-03-26T20:53:20.502Z,8.00
2023-03-26T20:55:52.537Z,8.60
2023-03-26T20:58:31.017Z,9.10
2023-03-26T21:01:03.054Z,9.10
2023-03-26T21:03:32.036Z,9.00
2023-03-26T21:06:10.561Z,9.10
2023-03-26T21:08:41.776Z,8.90
2023-03-26T21:11:26.665Z,8.90
2023-03-26T21:14:02.568Z,6.00
2023-03-26T21:16:32.482Z,9.00
2023-03-26T21:19:06.070Z,9.00
2023-03-26T21:21:59.344Z,7.80
2023-03-26T21:24:54.519Z,7.00
2023-03-26T21:27:34.707Z,8.40
2023-03-26T21:30:08.151Z,8.40
2023-03-26T21:32:38.120Z,8.60
2023-03-26T21:35:09.525Z,8.70
2023-03-26T21:37:42.900Z,8.90
2023-03-26T21:40:16.524Z,8.90
2023-03-26T21:42:47.841Z,9.00
2023-03-26T21:45:18.579Z,9.10
2023-03-26T21:47:49.241Z,9.10
2023-03-26T21:50:22.989Z,8.20
2023-03-26T21:52:54.456Z,9.10
2023-03-26T21:55:25.950Z,9.20
2023-03-26T21:58:19.951Z,9.10
2023-03-26T22:01:11.789Z,6.70
2023-03-26T22:04:29.962Z,9.30
2023-03-26T22:07:06.950Z,9.10
2023-03-26T22:09:38.821Z,8.80
2023-03-26T22:12:08.359Z,8.90
2023-03-26T22:14:37.230Z,9.20
2023-03-26T22:17:07.876Z,7.80
2023-03-26T22:19:37.049Z,9.10
2023-03-26T22:22:06.033Z,9.10
2023-03-26T22:24:36.272Z,7.70
2023-03-26T22:27:05.164Z,8.70
2023-03-26T22:29:34.087Z,5.30
2023-03-26T22:35:04.235Z,7.60
2023-03-26T22:37:32.982Z,5.70
2023-03-26T22:40:06.155Z,7.60
2023-03-26T22:42:35.079Z,8.70
2023-03-26T22:45:04.300Z,6.50
2023-03-26T22:47:34.461Z,6.10
2023-03-26T22:50:04.326Z,6.60
2023-03-26T22:52:33.267Z,5.30
2023-03-26T22:55:06.079Z,8.20
2023-03-26T22:57:34.875Z,6.70
2023-03-26T23:00:14.832Z,8.30
2023-03-26T23:02:46.615Z,8.30
2023-03-26T23:05:59.201Z,6.80
2023-03-26T23:08:48.327Z,7.00
2023-03-26T23:11:22.304Z,7.70
2023-03-26T23:13:51.807Z,7.80
2023-03-26T23:16:23.392Z,6.50
2023-03-26T23:18:52.564Z,8.00
2023-03-26T23:21:26.010Z,6.60
2023-03-26T23:23:58.425Z,7.60
2023-03-26T23:27:15.341Z,7.30
2023-03-26T23:30:12.574Z,4.70
2023-03-26T23:33:43.730Z,6.00
2023-03-26T23:44:07.081Z,7.30
2023-03-26T23:47:31.124Z,7.50
2023-03-26T23:51:04.816Z,2.70
2023-03-26T23:55:21.287Z,7.40
2023-03-26T23:58:03.970Z,7.50
